Terminal Aerodrome Forecast
Issued by NWS

Home | Current Version | Previous Version | Text Only | Print | Product List | Glossary On
Versions: 1 2 3 4 5 6 7 8 9 10 11 12 13 14 15 16 17 18 19 20 21
000
FTUS43 KPAH 311140
TAFCGI
TAF
KCGI 311140Z 3112/0112 36008KT P6SM BKN009 OVC012
     FM311400 01006KT P6SM OVC015
     FM311700 01008KT P6SM BKN025 OVC150
     FM010200 02007KT 6SM BR VCSH BKN015 OVC025
     FM010600 01005KT 5SM -SHRA BR BKN008 OVC014=

USA.gov is the U.S. government's official web portal to all federal, state and local government web resources and services.